Time;durP1;ratioP1;P1;durP2;ratioP2;P2;SDS_P1;SDS_P2;PMS_P1;PMS_P2;Temp;Humidity;BMP_temperature;BMP_pressure;BME280_temperature;BME280_humidity;BME280_pressure;Samples;Min_cycle;Max_cycle;Signal;HPM_P1;HPM_P2
2022/01/16 00:04:09;;;;;;;7.65;5.55;;;18.60;59.70;;;;;;10536398;28;20039;-56
2022/01/16 00:09:12;;;;;;;6.40;4.90;;;18.60;59.50;;;;;;10494731;28;20035;-56
2022/01/16 00:14:12;;;;;;;5.65;4.80;;;18.70;59.50;;;;;;10509990;28;20034;-56
2022/01/16 00:19:13;;;;;;;6.18;4.65;;;18.70;59.30;;;;;;10513492;28;20556;-55
2022/01/16 00:24:14;;;;;;;5.45;4.70;;;18.70;60.00;;;;;;10528370;28;20031;-54
2022/01/16 00:29:15;;;;;;;6.82;5.22;;;18.60;59.70;;;;;;10499026;28;20032;-55
2022/01/16 00:34:16;;;;;;;6.65;5.57;;;18.60;59.60;;;;;;10495575;28;20020;-56
2022/01/16 00:39:16;;;;;;;6.25;5.05;;;18.60;59.50;;;;;;10505984;28;20028;-56
2022/01/16 00:44:17;;;;;;;5.75;5.07;;;18.60;59.60;;;;;;10511653;28;20043;-55
2022/01/16 00:49:18;;;;;;;6.82;5.10;;;18.60;59.60;;;;;;10496882;28;20481;-55
2022/01/16 00:54:19;;;;;;;5.93;4.85;;;18.60;59.70;;;;;;10516543;28;20033;-55
2022/01/16 00:59:20;;;;;;;6.38;5.00;;;18.60;59.60;;;;;;10523397;28;20098;-55
2022/01/16 01:04:20;;;;;;;6.75;5.28;;;18.60;59.40;;;;;;10514635;28;20031;-56
2022/01/16 01:09:21;;;;;;;5.53;4.72;;;18.60;59.30;;;;;;10504796;28;20381;-55
2022/01/16 01:14:37;;;;;;;5.40;4.18;;;18.70;59.20;;;;;;10541949;28;20024;-55
2022/01/16 01:19:38;;;;;;;5.97;5.25;;;18.70;59.10;;;;;;10496749;28;20059;-55
2022/01/16 01:24:41;;;;;;;5.47;4.75;;;18.60;59.40;;;;;;10486844;28;20104;-56
2022/01/16 01:29:48;;;;;;;6.05;4.50;;;18.60;59.40;;;;;;10522653;28;20052;-55
2022/01/16 01:34:49;;;;;;;6.57;5.13;;;18.60;59.50;;;;;;10531177;28;20044;-55
2022/01/16 01:39:49;;;;;;;6.25;4.88;;;18.60;59.40;;;;;;10519523;28;20112;-56
2022/01/16 01:55:30;;;;;;;6.03;4.75;;;18.60;59.30;;;;;;10525789;28;20289;-55
2022/01/16 02:00:31;;;;;;;5.68;4.32;;;18.60;59.30;;;;;;10524156;28;20021;-56
2022/01/16 02:05:32;;;;;;;5.35;4.38;;;18.70;59.00;;;;;;10526853;28;20046;-55
2022/01/16 02:10:37;;;;;;;5.57;4.35;;;18.70;58.90;;;;;;10526408;28;20024;-55
2022/01/16 02:31:24;;;;;;;5.93;4.73;;;18.70;58.90;;;;;;10520821;28;20049;-55
2022/01/16 02:41:26;;;;;;;5.47;4.28;;;18.60;59.00;;;;;;10516287;28;20092;-56
2022/01/16 02:51:28;;;;;;;5.05;4.20;;;18.70;58.90;;;;;;10524570;28;20071;-57
2022/01/16 02:56:28;;;;;;;5.68;3.85;;;18.60;59.00;;;;;;10508545;28;20035;-55
2022/01/16 03:01:29;;;;;;;4.80;4.03;;;18.70;58.80;;;;;;10524732;28;20111;-57
2022/01/16 03:06:30;;;;;;;5.72;4.47;;;18.70;59.30;;;;;;10513149;28;20123;-56
2022/01/16 03:11:38;;;;;;;5.40;3.90;;;18.70;58.70;;;;;;10524134;28;20081;-55
2022/01/16 03:16:43;;;;;;;5.43;4.23;;;18.70;58.80;;;;;;10502764;28;20439;-55
2022/01/16 03:21:57;;;;;;;4.45;3.85;;;18.70;58.80;;;;;;10496302;28;20103;-56
2022/01/16 03:27:03;;;;;;;5.60;4.32;;;18.60;58.80;;;;;;10517535;28;20488;-56
2022/01/16 03:32:08;;;;;;;5.93;4.40;;;18.70;58.80;;;;;;10512642;28;20157;-55
2022/01/16 03:37:09;;;;;;;4.70;3.65;;;18.60;58.80;;;;;;10513704;28;20032;-55
2022/01/16 03:42:10;;;;;;;4.90;4.05;;;18.70;58.70;;;;;;10500416;28;20506;-56
2022/01/16 03:47:11;;;;;;;5.15;4.22;;;18.60;58.90;;;;;;10488587;28;20106;-55
2022/01/16 03:52:12;;;;;;;5.13;4.20;;;18.70;58.80;;;;;;10542610;28;20529;-56
2022/01/16 03:57:12;;;;;;;5.55;4.55;;;18.60;58.80;;;;;;10499324;28;20385;-55
2022/01/16 04:02:13;;;;;;;5.75;4.50;;;18.60;58.70;;;;;;10522934;28;20035;-56
2022/01/16 04:07:21;;;;;;;5.63;4.45;;;18.60;59.30;;;;;;10477671;28;20035;-55
2022/01/16 04:12:23;;;;;;;6.20;4.78;;;18.60;58.70;;;;;;10485867;28;20028;-54
2022/01/16 04:17:24;;;;;;;4.85;4.30;;;18.70;58.50;;;;;;10468548;28;20487;-55
2022/01/16 04:22:25;;;;;;;5.97;4.40;;;18.70;58.60;;;;;;10514910;28;20040;-55
2022/01/16 04:27:26;;;;;;;4.95;3.63;;;18.70;58.40;;;;;;10484154;28;20498;-56
2022/01/16 04:32:26;;;;;;;4.65;4.05;;;18.70;58.50;;;;;;10502506;28;20504;-56
2022/01/16 04:37:27;;;;;;;6.32;5.18;;;18.70;58.40;;;;;;10504979;28;20043;-55
2022/01/16 04:47:50;;;;;;;4.47;3.65;;;18.70;58.50;;;;;;10504081;28;20123;-55
2022/01/16 04:52:50;;;;;;;5.10;4.18;;;18.60;58.60;;;;;;10542659;28;20044;-55
2022/01/16 04:57:51;;;;;;;6.30;4.47;;;18.60;58.50;;;;;;10500820;28;20119;-54
2022/01/16 05:02:52;;;;;;;5.53;4.40;;;18.60;58.70;;;;;;10512648;28;20115;-56
2022/01/16 05:07:52;;;;;;;5.68;4.45;;;18.70;58.60;;;;;;10540943;28;20135;-55
2022/01/16 05:12:54;;;;;;;5.13;4.03;;;18.60;58.60;;;;;;10542503;28;20492;-55
2022/01/16 05:17:54;;;;;;;5.32;4.43;;;18.60;58.50;;;;;;10495326;28;20024;-55
2022/01/16 05:22:55;;;;;;;6.00;5.05;;;18.60;58.50;;;;;;10495512;28;20488;-56
2022/01/16 05:27:56;;;;;;;5.00;3.80;;;18.70;58.30;;;;;;10499940;28;20115;-55
2022/01/16 05:32:56;;;;;;;5.03;3.58;;;18.70;58.30;;;;;;10498575;28;20115;-55
2022/01/16 05:37:57;;;;;;;5.05;3.75;;;18.60;58.40;;;;;;10519683;28;20118;-54
2022/01/16 05:42:58;;;;;;;4.95;3.65;;;18.60;58.40;;;;;;10509171;28;20078;-55
2022/01/16 05:47:59;;;;;;;5.28;3.97;;;18.60;58.40;;;;;;10500505;28;20558;-55
2022/01/16 05:53:01;;;;;;;5.85;4.50;;;18.70;58.40;;;;;;10498975;28;20035;-55
2022/01/16 05:58:07;;;;;;;5.57;4.28;;;18.60;58.50;;;;;;10481222;28;20036;-55
2022/01/16 06:03:10;;;;;;;8.13;4.50;;;18.70;58.40;;;;;;10499345;28;20029;-54
2022/01/16 06:08:12;;;;;;;9.32;4.50;;;18.70;58.70;;;;;;10512303;28;20043;-54
2022/01/16 06:13:13;;;;;;;10.52;4.45;;;18.80;59.60;;;;;;10512939;28;20017;-56
2022/01/16 06:18:14;;;;;;;7.07;4.32;;;18.70;60.20;;;;;;10515183;28;20580;-56
2022/01/16 06:23:16;;;;;;;12.73;5.03;;;18.60;60.80;;;;;;10517764;28;20024;-57
2022/01/16 06:28:17;;;;;;;7.45;4.13;;;18.70;60.10;;;;;;10517881;28;20030;-56
2022/01/16 06:33:17;;;;;;;7.75;5.28;;;18.80;60.20;;;;;;10506581;28;20046;-55
2022/01/16 06:38:18;;;;;;;10.35;5.43;;;18.80;60.90;;;;;;10511334;28;20032;-56
2022/01/16 06:43:19;;;;;;;11.10;6.38;;;18.70;61.20;;;;;;10539153;28;20071;-55
2022/01/16 06:48:20;;;;;;;12.55;6.30;;;18.80;60.90;;;;;;10507199;28;20039;-55
2022/01/16 06:53:20;;;;;;;10.18;4.93;;;18.70;61.30;;;;;;10532648;28;20507;-56
2022/01/16 06:58:21;;;;;;;9.52;5.03;;;18.60;61.30;;;;;;10511847;28;20492;-56
2022/01/16 07:03:22;;;;;;;8.70;5.05;;;18.60;61.30;;;;;;10475219;28;20024;-56
2022/01/16 07:08:26;;;;;;;13.27;5.78;;;18.60;61.50;;;;;;10526737;28;20058;-56
2022/01/16 07:13:28;;;;;;;11.48;6.18;;;18.60;61.40;;;;;;10520380;28;20035;-55
2022/01/16 07:18:29;;;;;;;8.68;5.55;;;18.50;61.40;;;;;;10515478;28;20044;-56
2022/01/16 07:23:30;;;;;;;7.55;5.07;;;18.60;61.50;;;;;;10539408;28;20391;-55
2022/01/16 07:28:31;;;;;;;12.18;5.63;;;18.50;61.60;;;;;;10518906;28;20047;-54
2022/01/16 07:33:31;;;;;;;15.85;6.32;;;18.50;61.80;;;;;;10537780;28;20412;-54
2022/01/16 07:38:32;;;;;;;10.60;5.78;;;18.50;61.70;;;;;;10510822;28;20035;-52
2022/01/16 07:43:33;;;;;;;12.07;6.00;;;18.50;61.70;;;;;;10516948;28;20032;-53
2022/01/16 07:48:34;;;;;;;12.63;6.30;;;18.50;61.60;;;;;;10496169;28;20116;-54
2022/01/16 07:53:36;;;;;;;8.15;5.45;;;18.50;61.30;;;;;;10488488;28;20044;-54
2022/01/16 07:58:37;;;;;;;18.35;6.68;;;18.60;61.00;;;;;;10499573;28;20510;-59
2022/01/16 08:03:38;;;;;;;15.95;7.43;;;18.60;62.30;;;;;;10518573;28;20115;-54
2022/01/16 08:08:39;;;;;;;13.50;5.97;;;18.60;61.60;;;;;;10524750;28;20031;-55
2022/01/16 08:13:40;;;;;;;15.35;7.00;;;18.60;61.50;;;;;;10517203;28;20025;-53
2022/01/16 08:18:41;;;;;;;15.45;7.03;;;18.60;61.40;;;;;;10487623;28;20408;-51
2022/01/16 08:23:41;;;;;;;15.52;7.28;;;18.40;61.70;;;;;;10503062;28;20036;-53
2022/01/16 08:28:42;;;;;;;13.27;7.50;;;18.30;62.00;;;;;;10499688;28;20433;-54
2022/01/16 08:33:43;;;;;;;17.90;7.32;;;18.40;61.60;;;;;;10525832;28;20031;-58
2022/01/16 08:38:44;;;;;;;14.32;7.13;;;18.40;61.60;;;;;;10515489;28;20123;-55
2022/01/16 08:43:46;;;;;;;10.60;6.63;;;18.40;61.20;;;;;;10524764;28;20020;-55
2022/01/16 08:48:48;;;;;;;12.90;6.82;;;18.50;60.70;;;;;;10490879;28;20112;-55
2022/01/16 08:53:49;;;;;;;10.10;5.60;;;18.50;60.50;;;;;;10501946;28;20028;-54
2022/01/16 08:58:50;;;;;;;13.23;6.78;;;18.50;60.60;;;;;;10528682;28;20043;-55
2022/01/16 09:03:51;;;;;;;13.00;6.53;;;18.40;60.60;;;;;;10514790;28;20024;-56
2022/01/16 09:08:51;;;;;;;9.48;6.07;;;18.40;60.60;;;;;;10494566;28;20029;-54
2022/01/16 09:13:54;;;;;;;11.20;6.57;;;18.40;60.80;;;;;;10512356;28;20119;-53
2022/01/16 09:18:54;;;;;;;10.40;6.28;;;18.30;60.70;;;;;;10518358;28;20128;-54
2022/01/16 09:23:55;;;;;;;10.25;5.57;;;18.40;60.60;;;;;;10490970;28;20190;-54
2022/01/16 09:28:56;;;;;;;14.73;5.82;;;18.50;60.50;;;;;;10485111;28;20043;-55
2022/01/16 09:33:59;;;;;;;14.20;6.65;;;18.50;60.60;;;;;;10501920;28;20056;-54
2022/01/16 09:39:00;;;;;;;13.90;6.07;;;18.50;61.80;;;;;;10527454;28;20119;-54
2022/01/16 09:44:01;;;;;;;12.25;5.97;;;18.40;61.60;;;;;;10536591;28;20373;-55
2022/01/16 09:49:04;;;;;;;13.70;6.43;;;18.30;61.80;;;;;;10516492;28;20093;-54
2022/01/16 09:54:05;;;;;;;14.85;6.90;;;18.20;62.10;;;;;;10488614;28;20024;-53
2022/01/16 09:59:06;;;;;;;18.20;5.90;;;18.20;62.10;;;;;;10499619;28;20024;-54
2022/01/16 10:04:35;;;;;;;10.35;5.80;;;18.40;61.80;;;;;;10503746;28;20040;-53
2022/01/16 10:09:39;;;;;;;15.63;6.78;;;18.40;61.80;;;;;;10511387;28;20534;-55
2022/01/16 10:14:49;;;;;;;14.95;6.35;;;18.30;62.20;;;;;;10496833;28;20074;-55
2022/01/16 10:20:10;;;;;;;20.77;6.85;;;18.10;62.20;;;;;;10530166;28;20028;-53
2022/01/16 10:25:14;;;;;;;18.85;7.00;;;18.20;62.90;;;;;;10485401;28;20031;-53
2022/01/16 10:30:17;;;;;;;20.85;6.97;;;18.40;64.20;;;;;;10520482;28;20416;-54
2022/01/16 10:35:22;;;;;;;21.33;7.35;;;18.50;64.20;;;;;;10501869;28;20475;-54
2022/01/16 10:40:36;;;;;;;25.52;7.38;;;18.50;63.20;;;;;;10505170;28;20055;-55
2022/01/16 10:45:36;;;;;;;24.95;7.68;;;18.30;63.30;;;;;;10534876;28;20075;-55
2022/01/16 10:50:43;;;;;;;20.52;8.27;;;18.50;62.80;;;;;;10499424;28;20503;-56
2022/01/16 10:55:47;;;;;;;29.50;7.13;;;18.40;63.20;;;;;;10522158;28;20028;-56
2022/01/16 11:00:59;;;;;;;22.17;6.82;;;18.50;63.40;;;;;;10516118;28;20028;-55
2022/01/16 11:06:02;;;;;;;24.63;7.40;;;18.50;63.40;;;;;;10523889;28;20366;-55
2022/01/16 11:11:03;;;;;;;26.98;7.50;;;18.40;64.10;;;;;;10491060;28;20035;-57
2022/01/16 11:16:07;;;;;;;25.95;7.75;;;18.30;64.80;;;;;;10490789;28;20350;-54
2022/01/16 11:26:15;;;;;;;23.88;6.85;;;18.40;64.00;;;;;;10513975;28;20063;-54
2022/01/16 11:31:16;;;;;;;16.10;6.88;;;18.30;64.10;;;;;;10513376;28;20047;-54
2022/01/16 11:36:23;;;;;;;18.05;6.47;;;18.20;64.50;;;;;;10490033;28;20511;-55
2022/01/16 11:41:34;;;;;;;23.52;7.30;;;18.30;64.50;;;;;;10501225;28;20082;-55
2022/01/16 11:46:41;;;;;;;12.25;5.88;;;18.30;64.20;;;;;;10491450;28;20095;-55
2022/01/16 11:51:48;;;;;;;16.02;6.20;;;18.30;64.10;;;;;;10508152;28;20028;-54
2022/01/16 11:57:25;;;;;;;16.48;6.15;;;18.30;63.80;;;;;;10501456;28;20063;-53
2022/01/16 12:02:27;;;;;;;10.40;5.10;;;18.30;63.80;;;;;;10512143;28;20553;-52
2022/01/16 12:07:34;;;;;;;18.48;7.07;;;18.30;63.60;;;;;;10503969;28;20495;-53
2022/01/16 12:12:35;;;;;;;10.55;5.55;;;18.30;63.30;;;;;;10518932;28;20035;-51
2022/01/16 12:17:41;;;;;;;9.95;5.75;;;18.20;63.20;;;;;;10496087;28;20421;-50
2022/01/16 12:23:11;;;;;;;12.15;6.30;;;18.20;63.00;;;;;;10530019;28;20039;-53
2022/01/16 12:28:11;;;;;;;13.50;7.05;;;18.20;62.90;;;;;;10506542;28;20039;-53
2022/01/16 12:33:37;;;;;;;13.00;6.43;;;18.30;62.60;;;;;;10543696;28;20401;-50
2022/01/16 12:39:01;;;;;;;7.32;5.60;;;18.20;62.50;;;;;;10486967;28;20032;-51
2022/01/16 12:44:10;;;;;;;11.55;5.95;;;18.20;62.60;;;;;;10511975;28;20103;-54
2022/01/16 12:49:20;;;;;;;9.48;5.85;;;18.20;62.30;;;;;;10503396;28;20047;-54
2022/01/16 12:54:26;;;;;;;8.77;6.45;;;18.20;62.20;;;;;;10529796;28;20460;-52
2022/01/16 12:59:35;;;;;;;9.18;5.68;;;18.20;62.00;;;;;;10542328;28;20036;-53
2022/01/16 13:04:45;;;;;;;10.00;6.10;;;18.20;61.90;;;;;;10516262;28;20078;-54
2022/01/16 13:09:46;;;;;;;8.90;5.55;;;18.30;61.70;;;;;;10484799;28;20557;-52
2022/01/16 13:14:47;;;;;;;9.27;5.95;;;18.30;61.30;;;;;;10482598;28;20108;-51
2022/01/16 13:19:53;;;;;;;10.13;6.10;;;18.40;61.70;;;;;;10500417;28;20439;-52
2022/01/16 13:25:04;;;;;;;7.25;5.43;;;18.40;61.10;;;;;;10496436;28;20082;-53
2022/01/16 13:30:23;;;;;;;9.77;5.80;;;18.50;60.70;;;;;;10511957;28;20730;-51
2022/01/16 13:35:29;;;;;;;10.63;5.78;;;18.50;60.70;;;;;;10513228;28;20037;-53
2022/01/16 13:40:30;;;;;;;7.95;5.05;;;18.50;60.40;;;;;;10508316;28;20530;-54
2022/01/16 13:45:48;;;;;;;9.45;6.07;;;18.50;60.30;;;;;;10499272;28;20052;-53
2022/01/16 13:51:00;;;;;;;9.18;5.90;;;18.50;60.20;;;;;;10515614;28;20419;-53
2022/01/16 13:56:24;;;;;;;7.13;5.20;;;18.50;60.80;;;;;;10505116;28;20036;-53
2022/01/16 14:01:31;;;;;;;7.53;5.65;;;18.50;60.20;;;;;;10524844;28;20357;-55
2022/01/16 14:06:47;;;;;;;9.75;5.15;;;18.50;60.10;;;;;;10498602;28;20155;-55
2022/01/16 14:11:51;;;;;;;8.05;5.00;;;18.50;61.00;;;;;;10507352;28;20058;-56
2022/01/16 14:22:03;;;;;;;16.25;6.63;;;18.70;61.40;;;;;;10505328;28;20672;-56
2022/01/16 14:27:14;;;;;;;17.13;6.32;;;18.80;61.50;;;;;;10515780;28;20035;-54
2022/01/16 14:32:16;;;;;;;18.35;6.50;;;18.80;62.00;;;;;;10501133;28;20040;-52
2022/01/16 14:37:18;;;;;;;18.77;6.72;;;19.00;62.00;;;;;;10496049;28;20439;-54
2022/01/16 14:42:25;;;;;;;14.70;6.32;;;19.00;61.60;;;;;;10517725;28;20043;-56
2022/01/16 14:47:26;;;;;;;16.90;7.18;;;18.90;63.10;;;;;;10505425;28;20032;-56
2022/01/16 14:52:27;;;;;;;14.85;6.38;;;18.90;63.50;;;;;;10497115;28;20032;-55
2022/01/16 14:57:27;;;;;;;25.55;6.28;;;18.90;64.10;;;;;;10497116;28;20051;-56
2022/01/16 15:02:32;;;;;;;13.75;5.97;;;18.80;64.30;;;;;;10529989;28;20033;-57
2022/01/16 15:07:32;;;;;;;15.15;5.80;;;18.90;63.80;;;;;;10498489;28;20043;-54
2022/01/16 15:12:34;;;;;;;13.75;5.32;;;18.90;64.40;;;;;;10507517;28;20052;-54
2022/01/16 15:17:41;;;;;;;25.38;7.75;;;18.80;64.60;;;;;;10510067;28;20097;-55
2022/01/16 15:22:43;;;;;;;20.98;6.50;;;18.70;65.20;;;;;;10493168;28;20052;-55
2022/01/16 15:27:44;;;;;;;22.10;6.38;;;18.50;65.60;;;;;;10482098;28;20417;-56
2022/01/16 15:32:46;;;;;;;16.58;6.85;;;18.70;65.40;;;;;;10527480;28;20040;-55
2022/01/16 15:37:48;;;;;;;23.65;7.30;;;18.60;65.80;;;;;;10512451;28;20040;-54
2022/01/16 15:42:51;;;;;;;16.80;7.15;;;18.40;65.60;;;;;;10528728;28;20447;-55
2022/01/16 15:47:52;;;;;;;22.85;6.88;;;18.40;65.80;;;;;;10531076;28;20572;-54
2022/01/16 15:52:53;;;;;;;17.38;7.07;;;18.40;65.80;;;;;;10509689;28;20024;-54
2022/01/16 15:57:54;;;;;;;21.65;6.43;;;18.30;66.00;;;;;;10530932;28;20107;-54
2022/01/16 16:02:55;;;;;;;11.60;6.43;;;18.20;66.10;;;;;;10529881;28;20107;-54
2022/01/16 16:07:56;;;;;;;18.70;7.57;;;18.10;66.00;;;;;;10509907;28;20036;-53
2022/01/16 16:12:57;;;;;;;21.35;8.43;;;18.10;66.20;;;;;;10532035;28;20479;-53
2022/01/16 16:17:58;;;;;;;21.63;6.90;;;18.00;68.70;;;;;;10514532;28;20020;-53
2022/01/16 16:23:00;;;;;;;38.30;8.98;;;18.00;67.70;;;;;;10525812;28;20025;-56
2022/01/16 16:28:01;;;;;;;30.60;7.80;;;18.00;69.20;;;;;;10511806;28;20024;-58
2022/01/16 16:33:02;;;;;;;25.13;8.27;;;18.10;67.70;;;;;;10504519;28;20040;-55
2022/01/16 16:38:03;;;;;;;24.27;8.82;;;18.40;66.80;;;;;;10521194;28;20032;-57
2022/01/16 16:43:03;;;;;;;24.90;8.73;;;18.20;66.80;;;;;;10519942;28;20032;-53
2022/01/16 16:48:04;;;;;;;15.68;7.50;;;18.00;66.00;;;;;;10514508;28;20139;-55
2022/01/16 16:53:05;;;;;;;16.92;9.27;;;18.00;65.50;;;;;;10485286;28;20477;-55
2022/01/16 16:58:06;;;;;;;21.50;12.18;;;18.20;64.70;;;;;;10489504;28;20104;-56
2022/01/16 17:03:07;;;;;;;25.23;17.73;;;18.40;63.80;;;;;;10497443;28;20166;-55
2022/01/16 17:08:07;;;;;;;23.55;15.82;;;18.50;63.70;;;;;;10513517;28;20107;-56
2022/01/16 17:13:09;;;;;;;25.20;17.02;;;18.50;62.90;;;;;;10510632;28;20032;-54
2022/01/16 17:18:10;;;;;;;27.33;14.52;;;18.80;61.80;;;;;;10514722;28;20032;-56
2022/01/16 17:23:11;;;;;;;19.50;12.15;;;18.90;62.90;;;;;;10514905;28;20028;-55
2022/01/16 17:28:12;;;;;;;24.10;14.80;;;18.70;63.50;;;;;;10513003;28;20041;-54
2022/01/16 17:33:12;;;;;;;21.95;12.40;;;18.70;63.70;;;;;;10495844;28;20087;-54
2022/01/16 17:38:13;;;;;;;17.25;12.27;;;18.70;62.70;;;;;;10527988;28;20039;-57
2022/01/16 17:43:14;;;;;;;28.77;12.02;;;18.70;61.20;;;;;;10514642;28;20118;-54
2022/01/16 17:48:16;;;;;;;16.05;10.43;;;18.80;60.40;;;;;;10483494;28;20036;-53
2022/01/16 17:53:17;;;;;;;15.98;11.23;;;18.90;59.50;;;;;;10510697;28;20051;-55
2022/01/16 17:58:19;;;;;;;14.80;11.93;;;19.00;58.60;;;;;;10538480;28;20107;-54
2022/01/16 18:03:20;;;;;;;16.67;11.07;;;19.00;58.00;;;;;;10519470;28;20028;-55
2022/01/16 18:08:20;;;;;;;20.45;11.43;;;19.00;58.20;;;;;;10518984;28;20107;-54
2022/01/16 18:13:21;;;;;;;15.60;10.85;;;18.90;57.90;;;;;;10480877;28;20115;-56
2022/01/16 18:18:28;;;;;;;14.48;11.18;;;18.90;57.60;;;;;;10500381;28;20042;-55
2022/01/16 18:23:29;;;;;;;15.27;11.57;;;19.00;57.20;;;;;;10523997;28;20032;-56
2022/01/16 18:28:30;;;;;;;18.10;12.23;;;18.90;56.50;;;;;;10492162;28;20032;-55
2022/01/16 18:33:32;;;;;;;15.38;11.60;;;18.90;56.40;;;;;;10516566;28;20049;-56
2022/01/16 18:38:35;;;;;;;15.68;10.88;;;18.80;56.30;;;;;;10499128;28;20040;-56
2022/01/16 18:43:36;;;;;;;16.60;9.88;;;18.80;56.70;;;;;;10493004;28;20492;-56
2022/01/16 18:48:39;;;;;;;13.35;9.82;;;18.90;57.10;;;;;;10510649;28;20032;-55
2022/01/16 18:53:40;;;;;;;13.73;9.38;;;18.80;57.60;;;;;;10487027;28;21428;-54
2022/01/16 18:58:40;;;;;;;18.90;10.82;;;19.00;57.10;;;;;;10519285;28;20055;-55
2022/01/16 19:03:43;;;;;;;15.23;10.35;;;19.00;56.90;;;;;;10531086;28;20503;-55
2022/01/16 19:08:45;;;;;;;13.10;9.02;;;19.00;56.60;;;;;;10532260;28;20043;-56
2022/01/16 19:13:46;;;;;;;9.90;8.35;;;19.00;56.80;;;;;;10531052;28;20016;-57
2022/01/16 19:18:47;;;;;;;11.65;8.60;;;19.00;56.50;;;;;;10515920;28;20107;-55
2022/01/16 19:23:48;;;;;;;15.60;10.10;;;19.00;56.60;;;;;;10535915;28;20169;-55
2022/01/16 19:28:49;;;;;;;10.55;8.70;;;19.00;56.70;;;;;;10535713;28;20114;-53
2022/01/16 19:33:49;;;;;;;10.43;7.85;;;19.00;56.50;;;;;;10535592;28;20044;-55
2022/01/16 19:38:50;;;;;;;12.60;8.07;;;19.00;56.50;;;;;;10497918;28;20069;-55
2022/01/16 19:43:51;;;;;;;9.77;8.10;;;19.00;56.30;;;;;;10516327;28;20143;-55
2022/01/16 19:48:52;;;;;;;10.85;8.13;;;19.20;56.10;;;;;;10503747;28;20107;-55
2022/01/16 19:53:52;;;;;;;10.30;7.80;;;19.20;56.20;;;;;;10488242;28;20508;-54
2022/01/16 19:58:57;;;;;;;11.77;7.90;;;19.30;56.10;;;;;;10496905;28;20100;-54
2022/01/16 20:03:58;;;;;;;9.48;7.50;;;19.30;56.30;;;;;;10515945;28;20039;-55
2022/01/16 20:08:59;;;;;;;8.70;6.57;;;19.30;56.40;;;;;;10499709;28;20044;-55
2022/01/16 20:14:00;;;;;;;10.55;6.68;;;19.40;56.50;;;;;;10517935;28;20021;-56
2022/01/16 20:19:01;;;;;;;8.50;6.28;;;19.40;56.80;;;;;;10503121;28;20028;-55
2022/01/16 20:24:02;;;;;;;7.78;6.55;;;19.30;56.90;;;;;;10491249;28;20496;-56
2022/01/16 20:29:03;;;;;;;7.95;6.25;;;19.20;57.20;;;;;;10513852;28;20040;-55
2022/01/16 20:34:03;;;;;;;10.25;6.63;;;19.20;57.50;;;;;;10520900;28;20389;-56
2022/01/16 20:39:05;;;;;;;6.63;5.32;;;19.10;57.60;;;;;;10521188;28;20033;-55
2022/01/16 20:44:06;;;;;;;6.88;5.35;;;19.00;57.90;;;;;;10503274;28;20028;-56
2022/01/16 20:49:10;;;;;;;7.57;5.38;;;19.00;58.00;;;;;;10523538;28;20671;-55
2022/01/16 20:54:11;;;;;;;8.55;5.88;;;18.90;58.20;;;;;;10521110;28;20124;-56
2022/01/16 20:59:12;;;;;;;6.50;5.20;;;18.80;58.40;;;;;;10490450;28;20119;-55
2022/01/16 21:04:12;;;;;;;5.80;4.97;;;18.90;58.30;;;;;;10523761;28;20126;-56
2022/01/16 21:09:13;;;;;;;9.45;5.90;;;18.80;58.60;;;;;;10483926;28;20544;-56
2022/01/16 21:14:14;;;;;;;6.40;4.50;;;18.80;58.60;;;;;;10501033;28;20024;-55
2022/01/16 21:19:14;;;;;;;5.05;4.15;;;18.80;58.40;;;;;;10522410;28;20413;-55
2022/01/16 21:24:16;;;;;;;6.05;4.93;;;18.80;58.40;;;;;;10514518;28;20583;-55
2022/01/16 21:29:17;;;;;;;7.13;4.68;;;18.80;58.60;;;;;;10509178;28;20143;-55
2022/01/16 21:34:20;;;;;;;5.50;4.60;;;18.70;58.60;;;;;;10511261;28;20032;-56
2022/01/16 21:39:23;;;;;;;6.07;4.57;;;18.70;58.70;;;;;;10481751;28;20024;-56
2022/01/16 21:44:23;;;;;;;5.47;4.63;;;18.80;58.50;;;;;;10526090;28;20024;-55
2022/01/16 21:49:24;;;;;;;6.38;5.35;;;18.80;58.40;;;;;;10515087;28;20532;-56
2022/01/16 21:54:25;;;;;;;5.28;4.35;;;18.70;58.60;;;;;;10522534;28;20056;-56
2022/01/16 21:59:26;;;;;;;5.82;4.32;;;18.80;58.70;;;;;;10495719;28;20451;-56
2022/01/16 22:04:29;;;;;;;6.22;4.22;;;18.70;58.70;;;;;;10480655;28;20039;-56
2022/01/16 22:09:29;;;;;;;5.80;4.78;;;18.70;58.80;;;;;;10510990;28;20034;-55
2022/01/16 22:14:30;;;;;;;6.22;4.47;;;18.70;59.00;;;;;;10512506;28;20028;-55
2022/01/16 22:19:31;;;;;;;5.18;4.13;;;18.70;58.70;;;;;;10508893;28;20074;-55
2022/01/16 22:24:32;;;;;;;5.25;3.70;;;18.70;58.70;;;;;;10509366;28;20766;-56
2022/01/16 22:29:33;;;;;;;5.30;4.07;;;18.80;58.50;;;;;;10501399;28;20097;-55
2022/01/16 22:34:34;;;;;;;6.20;4.22;;;18.70;59.20;;;;;;10505774;28;20089;-56
2022/01/16 22:39:37;;;;;;;5.15;4.00;;;18.70;58.70;;;;;;10479180;28;20082;-56
2022/01/16 22:44:37;;;;;;;4.35;3.60;;;18.70;58.70;;;;;;10492400;28;20399;-56
2022/01/16 22:49:38;;;;;;;5.03;3.67;;;18.60;58.70;;;;;;10518539;28;20036;-56
2022/01/16 22:54:39;;;;;;;3.92;3.17;;;18.70;58.70;;;;;;10492514;28;20111;-58
2022/01/16 22:59:39;;;;;;;4.90;4.03;;;18.70;58.70;;;;;;10492250;28;20040;-56
2022/01/16 23:04:41;;;;;;;5.07;3.53;;;18.70;58.60;;;;;;10496501;28;20024;-56
2022/01/16 23:09:42;;;;;;;4.78;3.20;;;18.60;58.80;;;;;;10494500;28;20068;-55
2022/01/16 23:14:43;;;;;;;4.45;2.88;;;18.60;58.80;;;;;;10495823;28;20020;-55
2022/01/16 23:19:43;;;;;;;4.50;3.28;;;18.60;58.90;;;;;;10494852;28;20029;-55
2022/01/16 23:24:44;;;;;;;3.63;2.90;;;18.70;58.80;;;;;;10482145;28;20446;-56
2022/01/16 23:29:45;;;;;;;4.07;2.90;;;18.70;58.50;;;;;;10510231;28;20436;-55
2022/01/16 23:34:46;;;;;;;3.85;2.80;;;18.70;58.40;;;;;;10506185;28;20077;-57
2022/01/16 23:39:46;;;;;;;4.00;2.97;;;18.70;58.60;;;;;;10492132;28;20034;-55
2022/01/16 23:44:48;;;;;;;3.78;2.85;;;18.60;58.80;;;;;;10509580;28;20024;-56
2022/01/16 23:49:48;;;;;;;4.60;3.10;;;18.60;58.90;;;;;;10499377;28;20086;-56
2022/01/16 23:54:49;;;;;;;4.03;3.17;;;18.70;58.70;;;;;;10519024;28;20438;-55
2022/01/16 23:59:50;;;;;;;3.15;2.70;;;18.70;58.70;;;;;;10518003;28;20111;-56
